sensor_id;sensor_type;location;lat;lon;timestamp;P1;durP1;ratioP1;P2;durP2;ratioP2
38208;SDS011;24016;52.102;11.584;2023-03-25T00:01:58;2.63;;;1.40;;
38208;SDS011;24016;52.102;11.584;2023-03-25T00:04:23;3.75;;;1.75;;
38208;SDS011;24016;52.102;11.584;2023-03-25T00:06:52;3.65;;;1.50;;
38208;SDS011;24016;52.102;11.584;2023-03-25T00:09:18;4.60;;;1.60;;
38208;SDS011;24016;52.102;11.584;2023-03-25T00:11:44;3.88;;;1.50;;
38208;SDS011;24016;52.102;11.584;2023-03-25T00:14:09;2.42;;;1.30;;
38208;SDS011;24016;52.102;11.584;2023-03-25T00:16:36;2.42;;;1.30;;
38208;SDS011;24016;52.102;11.584;2023-03-25T00:19:02;2.97;;;1.45;;
38208;SDS011;24016;52.102;11.584;2023-03-25T00:21:27;2.97;;;1.27;;
38208;SDS011;24016;52.102;11.584;2023-03-25T00:23:53;4.63;;;1.30;;
38208;SDS011;24016;52.102;11.584;2023-03-25T00:26:19;6.10;;;1.60;;
38208;SDS011;24016;52.102;11.584;2023-03-25T00:28:45;2.85;;;1.80;;
38208;SDS011;24016;52.102;11.584;2023-03-25T00:31:11;3.72;;;2.25;;
38208;SDS011;24016;52.102;11.584;2023-03-25T00:33:38;3.28;;;1.70;;
38208;SDS011;24016;52.102;11.584;2023-03-25T00:36:09;5.43;;;1.50;;
38208;SDS011;24016;52.102;11.584;2023-03-25T00:38:37;1.83;;;1.30;;
38208;SDS011;24016;52.102;11.584;2023-03-25T00:41:09;2.97;;;1.10;;
38208;SDS011;24016;52.102;11.584;2023-03-25T00:43:37;2.45;;;1.40;;
38208;SDS011;24016;52.102;11.584;2023-03-25T00:46:03;2.72;;;1.50;;
38208;SDS011;24016;52.102;11.584;2023-03-25T00:48:28;3.22;;;1.38;;
38208;SDS011;24016;52.102;11.584;2023-03-25T00:50:54;4.32;;;1.10;;
38208;SDS011;24016;52.102;11.584;2023-03-25T00:53:19;1.65;;;1.10;;
38208;SDS011;24016;52.102;11.584;2023-03-25T00:55:45;4.63;;;1.20;;
38208;SDS011;24016;52.102;11.584;2023-03-25T00:58:10;4.38;;;1.50;;
38208;SDS011;24016;52.102;11.584;2023-03-25T01:00:36;2.17;;;1.27;;
38208;SDS011;24016;52.102;11.584;2023-03-25T01:03:01;5.88;;;1.25;;
38208;SDS011;24016;52.102;11.584;2023-03-25T01:05:28;4.47;;;1.60;;
38208;SDS011;24016;52.102;11.584;2023-03-25T01:07:54;5.35;;;1.70;;
38208;SDS011;24016;52.102;11.584;2023-03-25T01:10:19;3.28;;;1.40;;
38208;SDS011;24016;52.102;11.584;2023-03-25T01:12:45;4.45;;;1.35;;
38208;SDS011;24016;52.102;11.584;2023-03-25T01:15:11;2.67;;;1.42;;
38208;SDS011;24016;52.102;11.584;2023-03-25T01:17:36;4.85;;;2.00;;
38208;SDS011;24016;52.102;11.584;2023-03-25T01:20:02;3.72;;;1.60;;
38208;SDS011;24016;52.102;11.584;2023-03-25T01:22:30;3.53;;;1.40;;
38208;SDS011;24016;52.102;11.584;2023-03-25T01:24:56;2.47;;;1.23;;
38208;SDS011;24016;52.102;11.584;2023-03-25T01:27:21;4.25;;;1.50;;
38208;SDS011;24016;52.102;11.584;2023-03-25T01:29:48;4.50;;;1.40;;
38208;SDS011;24016;52.102;11.584;2023-03-25T01:32:14;3.33;;;1.42;;
38208;SDS011;24016;52.102;11.584;2023-03-25T01:34:40;4.55;;;2.28;;
38208;SDS011;24016;52.102;11.584;2023-03-25T01:37:06;4.20;;;1.95;;
38208;SDS011;24016;52.102;11.584;2023-03-25T01:39:33;3.83;;;2.10;;
38208;SDS011;24016;52.102;11.584;2023-03-25T01:41:59;4.57;;;2.38;;
38208;SDS011;24016;52.102;11.584;2023-03-25T01:46:52;4.47;;;2.42;;
38208;SDS011;24016;52.102;11.584;2023-03-25T01:49:26;5.45;;;2.10;;
38208;SDS011;24016;52.102;11.584;2023-03-25T01:52:15;5.53;;;1.63;;
38208;SDS011;24016;52.102;11.584;2023-03-25T01:54:45;3.90;;;2.08;;
38208;SDS011;24016;52.102;11.584;2023-03-25T01:57:13;3.70;;;1.30;;
38208;SDS011;24016;52.102;11.584;2023-03-25T01:59:42;4.32;;;1.42;;
38208;SDS011;24016;52.102;11.584;2023-03-25T02:02:07;2.35;;;1.20;;
38208;SDS011;24016;52.102;11.584;2023-03-25T02:04:44;7.05;;;1.45;;
38208;SDS011;24016;52.102;11.584;2023-03-25T02:09:55;4.78;;;1.60;;
38208;SDS011;24016;52.102;11.584;2023-03-25T02:12:23;4.68;;;1.27;;
38208;SDS011;24016;52.102;11.584;2023-03-25T02:14:48;1.75;;;1.38;;
38208;SDS011;24016;52.102;11.584;2023-03-25T02:17:24;4.47;;;1.77;;
38208;SDS011;24016;52.102;11.584;2023-03-25T02:19:58;2.22;;;1.20;;
38208;SDS011;24016;52.102;11.584;2023-03-25T02:30:52;5.03;;;1.40;;
38208;SDS011;24016;52.102;11.584;2023-03-25T02:39:21;4.88;;;1.27;;
38208;SDS011;24016;52.102;11.584;2023-03-25T02:43:00;4.05;;;1.50;;
38208;SDS011;24016;52.102;11.584;2023-03-25T02:45:14;1.70;;;1.17;;
38208;SDS011;24016;52.102;11.584;2023-03-25T02:47:48;5.32;;;1.60;;
38208;SDS011;24016;52.102;11.584;2023-03-25T02:50:39;4.78;;;1.70;;
38208;SDS011;24016;52.102;11.584;2023-03-25T02:53:09;3.20;;;1.20;;
38208;SDS011;24016;52.102;11.584;2023-03-25T02:55:39;1.88;;;1.10;;
38208;SDS011;24016;52.102;11.584;2023-03-25T02:58:08;5.20;;;1.67;;
38208;SDS011;24016;52.102;11.584;2023-03-25T03:00:37;4.40;;;1.30;;
38208;SDS011;24016;52.102;11.584;2023-03-25T03:03:04;2.40;;;1.10;;
38208;SDS011;24016;52.102;11.584;2023-03-25T03:05:35;3.80;;;1.70;;
38208;SDS011;24016;52.102;11.584;2023-03-25T03:14:05;2.95;;;1.30;;
38208;SDS011;24016;52.102;11.584;2023-03-25T03:16:49;7.22;;;1.60;;
38208;SDS011;24016;52.102;11.584;2023-03-25T03:19:37;2.60;;;1.20;;
38208;SDS011;24016;52.102;11.584;2023-03-25T03:25:00;8.25;;;1.67;;
38208;SDS011;24016;52.102;11.584;2023-03-25T03:27:59;4.53;;;1.55;;
38208;SDS011;24016;52.102;11.584;2023-03-25T03:30:32;2.55;;;1.45;;
38208;SDS011;24016;52.102;11.584;2023-03-25T03:33:23;3.30;;;1.20;;
38208;SDS011;24016;52.102;11.584;2023-03-25T03:36:16;5.03;;;1.20;;
38208;SDS011;24016;52.102;11.584;2023-03-25T03:38:47;6.38;;;1.20;;
38208;SDS011;24016;52.102;11.584;2023-03-25T03:41:17;5.20;;;1.20;;
38208;SDS011;24016;52.102;11.584;2023-03-25T03:43:53;4.20;;;1.20;;
38208;SDS011;24016;52.102;11.584;2023-03-25T03:46:29;3.45;;;1.05;;
38208;SDS011;24016;52.102;11.584;2023-03-25T03:49:07;4.85;;;1.20;;
38208;SDS011;24016;52.102;11.584;2023-03-25T03:51:45;1.88;;;1.10;;
38208;SDS011;24016;52.102;11.584;2023-03-25T03:54:19;2.13;;;1.02;;
38208;SDS011;24016;52.102;11.584;2023-03-25T03:57:00;3.53;;;1.00;;
38208;SDS011;24016;52.102;11.584;2023-03-25T03:59:44;2.75;;;1.63;;
38208;SDS011;24016;52.102;11.584;2023-03-25T04:02:26;1.75;;;0.88;;
38208;SDS011;24016;52.102;11.584;2023-03-25T04:04:58;3.73;;;1.20;;
38208;SDS011;24016;52.102;11.584;2023-03-25T04:07:32;2.45;;;0.95;;
38208;SDS011;24016;52.102;11.584;2023-03-25T04:10:29;4.55;;;1.40;;
38208;SDS011;24016;52.102;11.584;2023-03-25T04:13:04;2.67;;;1.00;;
38208;SDS011;24016;52.102;11.584;2023-03-25T04:15:35;2.20;;;0.95;;
38208;SDS011;24016;52.102;11.584;2023-03-25T04:18:02;2.63;;;1.10;;
38208;SDS011;24016;52.102;11.584;2023-03-25T04:20:28;3.97;;;1.20;;
38208;SDS011;24016;52.102;11.584;2023-03-25T04:22:58;3.75;;;1.30;;
38208;SDS011;24016;52.102;11.584;2023-03-25T04:25:24;2.75;;;1.27;;
38208;SDS011;24016;52.102;11.584;2023-03-25T04:27:50;3.42;;;1.10;;
38208;SDS011;24016;52.102;11.584;2023-03-25T04:30:17;2.15;;;0.80;;
38208;SDS011;24016;52.102;11.584;2023-03-25T04:32:44;1.95;;;1.00;;
38208;SDS011;24016;52.102;11.584;2023-03-25T04:35:11;2.20;;;0.80;;
38208;SDS011;24016;52.102;11.584;2023-03-25T04:37:37;3.00;;;0.85;;
38208;SDS011;24016;52.102;11.584;2023-03-25T04:40:03;2.00;;;0.82;;
38208;SDS011;24016;52.102;11.584;2023-03-25T04:42:30;3.88;;;1.10;;
38208;SDS011;24016;52.102;11.584;2023-03-25T04:44:56;1.88;;;0.80;;
38208;SDS011;24016;52.102;11.584;2023-03-25T04:47:23;2.28;;;0.90;;
38208;SDS011;24016;52.102;11.584;2023-03-25T04:49:49;1.77;;;0.77;;
38208;SDS011;24016;52.102;11.584;2023-03-25T04:52:14;3.78;;;0.90;;
38208;SDS011;24016;52.102;11.584;2023-03-25T04:54:40;2.05;;;0.95;;
38208;SDS011;24016;52.102;11.584;2023-03-25T04:57:06;3.92;;;1.00;;
38208;SDS011;24016;52.102;11.584;2023-03-25T04:59:34;2.17;;;0.85;;
38208;SDS011;24016;52.102;11.584;2023-03-25T05:02:01;2.90;;;0.90;;
38208;SDS011;24016;52.102;11.584;2023-03-25T05:04:30;3.00;;;1.10;;
38208;SDS011;24016;52.102;11.584;2023-03-25T05:06:56;2.30;;;1.00;;
38208;SDS011;24016;52.102;11.584;2023-03-25T05:09:21;2.40;;;1.13;;
38208;SDS011;24016;52.102;11.584;2023-03-25T05:11:49;1.90;;;1.02;;
38208;SDS011;24016;52.102;11.584;2023-03-25T05:14:17;1.75;;;0.90;;
38208;SDS011;24016;52.102;11.584;2023-03-25T05:16:44;2.97;;;1.15;;
38208;SDS011;24016;52.102;11.584;2023-03-25T05:19:10;3.30;;;0.93;;
38208;SDS011;24016;52.102;11.584;2023-03-25T05:21:37;2.53;;;1.10;;
38208;SDS011;24016;52.102;11.584;2023-03-25T05:24:05;1.10;;;0.77;;
38208;SDS011;24016;52.102;11.584;2023-03-25T05:26:38;3.20;;;0.90;;
38208;SDS011;24016;52.102;11.584;2023-03-25T05:29:09;3.42;;;1.20;;
38208;SDS011;24016;52.102;11.584;2023-03-25T05:31:41;1.77;;;0.77;;
38208;SDS011;24016;52.102;11.584;2023-03-25T05:34:09;3.15;;;1.00;;
38208;SDS011;24016;52.102;11.584;2023-03-25T05:36:34;3.88;;;1.00;;
38208;SDS011;24016;52.102;11.584;2023-03-25T05:39:00;3.45;;;0.85;;
38208;SDS011;24016;52.102;11.584;2023-03-25T05:41:28;3.20;;;1.10;;
38208;SDS011;24016;52.102;11.584;2023-03-25T05:43:58;2.92;;;0.85;;
38208;SDS011;24016;52.102;11.584;2023-03-25T05:46:24;5.82;;;1.00;;
38208;SDS011;24016;52.102;11.584;2023-03-25T05:48:52;2.67;;;0.95;;
38208;SDS011;24016;52.102;11.584;2023-03-25T05:51:18;6.10;;;1.35;;
38208;SDS011;24016;52.102;11.584;2023-03-25T05:53:46;4.70;;;1.35;;
38208;SDS011;24016;52.102;11.584;2023-03-25T05:56:16;5.30;;;1.77;;
38208;SDS011;24016;52.102;11.584;2023-03-25T05:58:43;4.88;;;1.60;;
38208;SDS011;24016;52.102;11.584;2023-03-25T06:01:09;4.80;;;1.45;;
38208;SDS011;24016;52.102;11.584;2023-03-25T06:03:39;2.20;;;1.00;;
38208;SDS011;24016;52.102;11.584;2023-03-25T06:06:09;5.65;;;1.08;;
38208;SDS011;24016;52.102;11.584;2023-03-25T06:08:47;3.55;;;1.02;;
38208;SDS011;24016;52.102;11.584;2023-03-25T06:11:14;3.67;;;1.20;;
38208;SDS011;24016;52.102;11.584;2023-03-25T06:13:42;3.78;;;1.15;;
38208;SDS011;24016;52.102;11.584;2023-03-25T06:16:16;2.53;;;1.05;;
38208;SDS011;24016;52.102;11.584;2023-03-25T06:18:44;1.80;;;0.95;;
38208;SDS011;24016;52.102;11.584;2023-03-25T06:21:14;1.48;;;0.73;;
38208;SDS011;24016;52.102;11.584;2023-03-25T06:23:44;2.28;;;1.10;;
38208;SDS011;24016;52.102;11.584;2023-03-25T06:26:12;4.53;;;1.75;;
38208;SDS011;24016;52.102;11.584;2023-03-25T06:28:38;2.33;;;0.80;;
38208;SDS011;24016;52.102;11.584;2023-03-25T06:31:03;2.55;;;1.10;;
38208;SDS011;24016;52.102;11.584;2023-03-25T06:33:32;3.80;;;1.05;;
38208;SDS011;24016;52.102;11.584;2023-03-25T06:35:58;2.65;;;1.33;;
38208;SDS011;24016;52.102;11.584;2023-03-25T06:38:23;3.45;;;1.20;;
38208;SDS011;24016;52.102;11.584;2023-03-25T06:40:50;2.40;;;0.93;;
38208;SDS011;24016;52.102;11.584;2023-03-25T06:43:15;3.33;;;1.20;;
38208;SDS011;24016;52.102;11.584;2023-03-25T06:45:41;2.03;;;0.93;;
38208;SDS011;24016;52.102;11.584;2023-03-25T06:48:07;2.45;;;1.10;;
38208;SDS011;24016;52.102;11.584;2023-03-25T06:50:33;3.88;;;1.40;;
38208;SDS011;24016;52.102;11.584;2023-03-25T06:52:58;4.13;;;1.27;;
38208;SDS011;24016;52.102;11.584;2023-03-25T06:55:25;4.00;;;1.38;;
38208;SDS011;24016;52.102;11.584;2023-03-25T06:57:54;3.10;;;1.42;;
38208;SDS011;24016;52.102;11.584;2023-03-25T07:00:20;2.83;;;1.10;;
38208;SDS011;24016;52.102;11.584;2023-03-25T07:02:48;2.15;;;1.10;;
38208;SDS011;24016;52.102;11.584;2023-03-25T07:05:13;3.22;;;1.13;;
38208;SDS011;24016;52.102;11.584;2023-03-25T07:07:39;3.10;;;1.30;;
38208;SDS011;24016;52.102;11.584;2023-03-25T07:10:04;3.78;;;1.10;;
38208;SDS011;24016;52.102;11.584;2023-03-25T07:12:32;4.03;;;1.10;;
38208;SDS011;24016;52.102;11.584;2023-03-25T07:14:58;2.47;;;1.10;;
38208;SDS011;24016;52.102;11.584;2023-03-25T07:17:24;1.35;;;0.85;;
38208;SDS011;24016;52.102;11.584;2023-03-25T07:19:50;3.83;;;1.20;;
38208;SDS011;24016;52.102;11.584;2023-03-25T07:22:15;2.47;;;1.08;;
38208;SDS011;24016;52.102;11.584;2023-03-25T07:24:41;2.30;;;0.75;;
38208;SDS011;24016;52.102;11.584;2023-03-25T07:27:11;1.83;;;0.80;;
38208;SDS011;24016;52.102;11.584;2023-03-25T07:29:38;1.92;;;1.30;;
38208;SDS011;24016;52.102;11.584;2023-03-25T07:32:04;2.92;;;1.08;;
38208;SDS011;24016;52.102;11.584;2023-03-25T07:34:30;5.60;;;1.10;;
38208;SDS011;24016;52.102;11.584;2023-03-25T07:36:55;2.60;;;0.80;;
38208;SDS011;24016;52.102;11.584;2023-03-25T07:39:21;1.83;;;0.68;;
38208;SDS011;24016;52.102;11.584;2023-03-25T07:41:49;2.25;;;1.05;;
38208;SDS011;24016;52.102;11.584;2023-03-25T07:44:15;2.85;;;0.95;;
38208;SDS011;24016;52.102;11.584;2023-03-25T07:46:40;2.20;;;1.00;;
38208;SDS011;24016;52.102;11.584;2023-03-25T07:49:06;9.27;;;1.00;;
38208;SDS011;24016;52.102;11.584;2023-03-25T07:51:31;2.63;;;1.13;;
38208;SDS011;24016;52.102;11.584;2023-03-25T07:53:59;3.15;;;1.20;;
38208;SDS011;24016;52.102;11.584;2023-03-25T07:56:24;4.68;;;1.30;;
38208;SDS011;24016;52.102;11.584;2023-03-25T07:58:50;1.88;;;0.90;;
38208;SDS011;24016;52.102;11.584;2023-03-25T08:01:15;2.50;;;1.20;;
38208;SDS011;24016;52.102;11.584;2023-03-25T08:03:41;4.13;;;1.17;;
38208;SDS011;24016;52.102;11.584;2023-03-25T08:06:06;4.10;;;1.17;;
38208;SDS011;24016;52.102;11.584;2023-03-25T08:08:33;1.88;;;1.10;;
38208;SDS011;24016;52.102;11.584;2023-03-25T08:10:59;3.10;;;1.00;;
38208;SDS011;24016;52.102;11.584;2023-03-25T08:13:25;2.83;;;1.17;;
38208;SDS011;24016;52.102;11.584;2023-03-25T08:15:51;1.92;;;0.82;;
38208;SDS011;24016;52.102;11.584;2023-03-25T08:18:17;4.05;;;1.50;;
38208;SDS011;24016;52.102;11.584;2023-03-25T08:20:43;3.05;;;1.25;;
38208;SDS011;24016;52.102;11.584;2023-03-25T08:23:08;2.20;;;0.85;;
38208;SDS011;24016;52.102;11.584;2023-03-25T08:25:36;1.85;;;0.80;;
38208;SDS011;24016;52.102;11.584;2023-03-25T08:28:03;2.47;;;0.98;;
38208;SDS011;24016;52.102;11.584;2023-03-25T08:30:30;3.28;;;1.08;;
38208;SDS011;24016;52.102;11.584;2023-03-25T08:33:03;1.40;;;0.90;;
38208;SDS011;24016;52.102;11.584;2023-03-25T08:35:31;2.15;;;0.85;;
38208;SDS011;24016;52.102;11.584;2023-03-25T08:37:56;2.90;;;1.13;;
38208;SDS011;24016;52.102;11.584;2023-03-25T08:40:25;2.88;;;0.77;;
38208;SDS011;24016;52.102;11.584;2023-03-25T08:42:51;2.83;;;0.90;;
38208;SDS011;24016;52.102;11.584;2023-03-25T08:45:17;2.33;;;1.00;;
38208;SDS011;24016;52.102;11.584;2023-03-25T08:47:43;2.00;;;1.05;;
38208;SDS011;24016;52.102;11.584;2023-03-25T08:50:09;2.90;;;0.90;;
38208;SDS011;24016;52.102;11.584;2023-03-25T08:52:35;3.75;;;1.17;;
38208;SDS011;24016;52.102;11.584;2023-03-25T08:55:01;3.38;;;1.10;;
38208;SDS011;24016;52.102;11.584;2023-03-25T08:57:26;2.30;;;1.10;;
38208;SDS011;24016;52.102;11.584;2023-03-25T08:59:52;2.28;;;0.90;;
38208;SDS011;24016;52.102;11.584;2023-03-25T09:02:17;3.67;;;1.10;;
38208;SDS011;24016;52.102;11.584;2023-03-25T09:04:43;1.83;;;0.95;;
38208;SDS011;24016;52.102;11.584;2023-03-25T09:07:09;1.48;;;0.80;;
38208;SDS011;24016;52.102;11.584;2023-03-25T09:09:38;2.03;;;1.05;;
38208;SDS011;24016;52.102;11.584;2023-03-25T09:12:04;1.60;;;1.10;;
38208;SDS011;24016;52.102;11.584;2023-03-25T09:14:30;3.17;;;1.10;;
38208;SDS011;24016;52.102;11.584;2023-03-25T09:16:56;1.95;;;0.93;;
38208;SDS011;24016;52.102;11.584;2023-03-25T09:19:22;1.45;;;1.00;;
38208;SDS011;24016;52.102;11.584;2023-03-25T09:21:47;6.10;;;1.40;;
38208;SDS011;24016;52.102;11.584;2023-03-25T09:24:13;2.78;;;1.05;;
38208;SDS011;24016;52.102;11.584;2023-03-25T09:26:38;2.95;;;1.10;;
38208;SDS011;24016;52.102;11.584;2023-03-25T09:29:04;2.47;;;0.88;;
38208;SDS011;24016;52.102;11.584;2023-03-25T09:31:30;1.80;;;0.90;;
38208;SDS011;24016;52.102;11.584;2023-03-25T09:33:56;4.82;;;0.90;;
38208;SDS011;24016;52.102;11.584;2023-03-25T09:36:21;2.47;;;0.93;;
38208;SDS011;24016;52.102;11.584;2023-03-25T09:38:47;1.30;;;0.70;;
38208;SDS011;24016;52.102;11.584;2023-03-25T09:41:22;3.17;;;1.10;;
38208;SDS011;24016;52.102;11.584;2023-03-25T09:44:01;2.33;;;0.80;;
38208;SDS011;24016;52.102;11.584;2023-03-25T09:46:33;1.77;;;0.70;;
38208;SDS011;24016;52.102;11.584;2023-03-25T09:49:02;2.25;;;0.80;;
38208;SDS011;24016;52.102;11.584;2023-03-25T09:51:29;1.92;;;0.80;;
38208;SDS011;24016;52.102;11.584;2023-03-25T09:54:04;2.42;;;0.70;;
38208;SDS011;24016;52.102;11.584;2023-03-25T09:56:44;2.22;;;0.93;;
38208;SDS011;24016;52.102;11.584;2023-03-25T09:59:46;2.78;;;0.98;;
38208;SDS011;24016;52.102;11.584;2023-03-25T10:02:13;1.30;;;0.75;;
38208;SDS011;24016;52.102;11.584;2023-03-25T10:04:45;3.05;;;0.90;;
38208;SDS011;24016;52.102;11.584;2023-03-25T10:10:02;2.25;;;1.08;;
38208;SDS011;24016;52.102;11.584;2023-03-25T10:15:35;1.48;;;0.98;;
38208;SDS011;24016;52.102;11.584;2023-03-25T10:21:00;2.58;;;1.05;;
38208;SDS011;24016;52.102;11.584;2023-03-25T10:23:37;2.17;;;0.90;;
38208;SDS011;24016;52.102;11.584;2023-03-25T10:26:27;2.35;;;0.82;;
38208;SDS011;24016;52.102;11.584;2023-03-25T10:29:02;4.68;;;0.77;;
38208;SDS011;24016;52.102;11.584;2023-03-25T10:31:33;2.58;;;0.73;;
38208;SDS011;24016;52.102;11.584;2023-03-25T10:34:04;1.65;;;0.80;;
38208;SDS011;24016;52.102;11.584;2023-03-25T10:36:39;2.08;;;0.65;;
38208;SDS011;24016;52.102;11.584;2023-03-25T10:39:11;1.05;;;0.60;;
38208;SDS011;24016;52.102;11.584;2023-03-25T10:41:45;1.10;;;0.70;;
38208;SDS011;24016;52.102;11.584;2023-03-25T10:44:15;1.27;;;0.60;;
38208;SDS011;24016;52.102;11.584;2023-03-25T10:46:59;1.88;;;0.75;;
38208;SDS011;24016;52.102;11.584;2023-03-25T10:49:33;1.90;;;0.90;;
38208;SDS011;24016;52.102;11.584;2023-03-25T10:52:01;2.40;;;0.93;;
38208;SDS011;24016;52.102;11.584;2023-03-25T10:54:29;2.08;;;0.90;;
38208;SDS011;24016;52.102;11.584;2023-03-25T10:56:58;1.17;;;0.50;;
38208;SDS011;24016;52.102;11.584;2023-03-25T10:59:37;3.70;;;0.80;;
38208;SDS011;24016;52.102;11.584;2023-03-25T11:02:13;2.13;;;0.80;;
38208;SDS011;24016;52.102;11.584;2023-03-25T11:04:42;1.08;;;0.60;;
38208;SDS011;24016;52.102;11.584;2023-03-25T11:07:24;1.08;;;0.77;;
38208;SDS011;24016;52.102;11.584;2023-03-25T11:10:06;1.33;;;0.60;;
38208;SDS011;24016;52.102;11.584;2023-03-25T11:12:35;5.05;;;1.70;;
38208;SDS011;24016;52.102;11.584;2023-03-25T11:15:03;0.98;;;0.65;;
38208;SDS011;24016;52.102;11.584;2023-03-25T11:17:29;1.63;;;0.80;;
38208;SDS011;24016;52.102;11.584;2023-03-25T11:20:01;2.47;;;0.73;;
38208;SDS011;24016;52.102;11.584;2023-03-25T11:22:35;2.75;;;0.73;;
38208;SDS011;24016;52.102;11.584;2023-03-25T11:25:06;1.15;;;0.68;;
38208;SDS011;24016;52.102;11.584;2023-03-25T11:27:46;1.42;;;0.80;;
38208;SDS011;24016;52.102;11.584;2023-03-25T11:30:17;3.00;;;0.90;;
38208;SDS011;24016;52.102;11.584;2023-03-25T11:32:45;1.98;;;0.80;;
38208;SDS011;24016;52.102;11.584;2023-03-25T11:35:28;1.10;;;0.60;;
38208;SDS011;24016;52.102;11.584;2023-03-25T11:37:59;0.95;;;0.60;;
38208;SDS011;24016;52.102;11.584;2023-03-25T11:40:27;0.80;;;0.67;;
38208;SDS011;24016;52.102;11.584;2023-03-25T11:42:55;2.28;;;1.00;;
38208;SDS011;24016;52.102;11.584;2023-03-25T11:45:23;3.40;;;1.20;;
38208;SDS011;24016;52.102;11.584;2023-03-25T11:48:11;1.42;;;0.93;;
38208;SDS011;24016;52.102;11.584;2023-03-25T11:50:48;1.98;;;0.90;;
38208;SDS011;24016;52.102;11.584;2023-03-25T11:53:19;4.00;;;1.10;;
38208;SDS011;24016;52.102;11.584;2023-03-25T11:55:47;1.60;;;0.85;;
38208;SDS011;24016;52.102;11.584;2023-03-25T11:58:16;1.55;;;0.90;;
38208;SDS011;24016;52.102;11.584;2023-03-25T12:00:46;2.60;;;0.90;;
38208;SDS011;24016;52.102;11.584;2023-03-25T12:03:17;2.20;;;0.98;;
38208;SDS011;24016;52.102;11.584;2023-03-25T12:06:05;1.73;;;0.90;;
38208;SDS011;24016;52.102;11.584;2023-03-25T12:08:40;2.47;;;0.60;;
38208;SDS011;24016;52.102;11.584;2023-03-25T12:11:13;3.25;;;0.70;;
38208;SDS011;24016;52.102;11.584;2023-03-25T12:13:54;0.57;;;0.47;;
38208;SDS011;24016;52.102;11.584;2023-03-25T12:16:33;1.50;;;0.65;;
38208;SDS011;24016;52.102;11.584;2023-03-25T12:19:31;2.25;;;0.70;;
38208;SDS011;24016;52.102;11.584;2023-03-25T12:30:45;2.20;;;0.90;;
38208;SDS011;24016;52.102;11.584;2023-03-25T12:35:45;3.42;;;1.90;;
38208;SDS011;24016;52.102;11.584;2023-03-25T12:47:13;2.15;;;0.90;;
38208;SDS011;24016;52.102;11.584;2023-03-25T13:01:09;3.75;;;1.00;;
38208;SDS011;24016;52.102;11.584;2023-03-25T13:06:41;4.65;;;1.50;;
38208;SDS011;24016;52.102;11.584;2023-03-25T13:10:05;4.22;;;1.30;;
38208;SDS011;24016;52.102;11.584;2023-03-25T13:12:33;3.55;;;1.10;;
38208;SDS011;24016;52.102;11.584;2023-03-25T13:15:20;2.15;;;0.80;;
38208;SDS011;24016;52.102;11.584;2023-03-25T13:17:58;1.75;;;1.00;;
38208;SDS011;24016;52.102;11.584;2023-03-25T13:20:29;5.13;;;1.13;;
38208;SDS011;24016;52.102;11.584;2023-03-25T13:22:58;4.65;;;1.42;;
38208;SDS011;24016;52.102;11.584;2023-03-25T13:25:46;1.77;;;1.00;;
38208;SDS011;24016;52.102;11.584;2023-03-25T13:28:22;3.50;;;1.42;;
38208;SDS011;24016;52.102;11.584;2023-03-25T13:30:54;3.58;;;1.17;;
38208;SDS011;24016;52.102;11.584;2023-03-25T13:33:27;2.97;;;1.30;;
38208;SDS011;24016;52.102;11.584;2023-03-25T13:36:08;2.28;;;1.30;;
38208;SDS011;24016;52.102;11.584;2023-03-25T13:38:42;3.15;;;1.30;;
38208;SDS011;24016;52.102;11.584;2023-03-25T13:41:16;2.65;;;1.35;;
38208;SDS011;24016;52.102;11.584;2023-03-25T13:43:55;2.60;;;1.20;;
38208;SDS011;24016;52.102;11.584;2023-03-25T13:46:30;3.10;;;1.10;;
38208;SDS011;24016;52.102;11.584;2023-03-25T13:49:02;4.05;;;1.15;;
38208;SDS011;24016;52.102;11.584;2023-03-25T13:51:29;1.88;;;1.10;;
38208;SDS011;24016;52.102;11.584;2023-03-25T13:54:10;4.25;;;1.30;;
38208;SDS011;24016;52.102;11.584;2023-03-25T14:02:39;2.00;;;1.13;;
38208;SDS011;24016;52.102;11.584;2023-03-25T14:05:29;3.60;;;1.15;;
38208;SDS011;24016;52.102;11.584;2023-03-25T14:10:53;3.05;;;1.42;;
38208;SDS011;24016;52.102;11.584;2023-03-25T14:13:45;2.33;;;1.40;;
38208;SDS011;24016;52.102;11.584;2023-03-25T14:16:37;4.72;;;1.55;;
38208;SDS011;24016;52.102;11.584;2023-03-25T14:19:19;3.22;;;1.25;;
38208;SDS011;24016;52.102;11.584;2023-03-25T14:21:51;2.80;;;1.13;;
38208;SDS011;24016;52.102;11.584;2023-03-25T14:24:21;3.30;;;1.27;;
38208;SDS011;24016;52.102;11.584;2023-03-25T14:26:51;5.35;;;1.20;;
38208;SDS011;24016;52.102;11.584;2023-03-25T14:34:46;4.00;;;1.25;;
38208;SDS011;24016;52.102;11.584;2023-03-25T14:39:55;2.28;;;1.10;;
38208;SDS011;24016;52.102;11.584;2023-03-25T14:47:57;3.22;;;1.38;;
38208;SDS011;24016;52.102;11.584;2023-03-25T14:52:50;2.42;;;1.00;;
38208;SDS011;24016;52.102;11.584;2023-03-25T14:55:19;4.93;;;1.40;;
38208;SDS011;24016;52.102;11.584;2023-03-25T14:58:18;2.22;;;1.35;;
38208;SDS011;24016;52.102;11.584;2023-03-25T15:00:48;2.50;;;1.20;;
38208;SDS011;24016;52.102;11.584;2023-03-25T15:03:19;5.13;;;1.40;;
38208;SDS011;24016;52.102;11.584;2023-03-25T15:05:53;2.88;;;1.25;;
38208;SDS011;24016;52.102;11.584;2023-03-25T15:08:48;1.40;;;0.88;;
38208;SDS011;24016;52.102;11.584;2023-03-25T15:11:17;3.50;;;1.27;;
38208;SDS011;24016;52.102;11.584;2023-03-25T15:13:53;3.35;;;1.20;;
38208;SDS011;24016;52.102;11.584;2023-03-25T15:19:04;3.08;;;1.00;;
38208;SDS011;24016;52.102;11.584;2023-03-25T15:24:35;2.45;;;1.17;;
38208;SDS011;24016;52.102;11.584;2023-03-25T15:29:57;2.40;;;1.02;;
38208;SDS011;24016;52.102;11.584;2023-03-25T15:32:48;4.40;;;1.20;;
38208;SDS011;24016;52.102;11.584;2023-03-25T15:38:37;1.88;;;1.10;;
38208;SDS011;24016;52.102;11.584;2023-03-25T15:44:08;2.90;;;1.20;;
38208;SDS011;24016;52.102;11.584;2023-03-25T15:50:04;2.42;;;1.42;;
38208;SDS011;24016;52.102;11.584;2023-03-25T15:55:51;2.45;;;1.20;;
38208;SDS011;24016;52.102;11.584;2023-03-25T16:00:50;3.13;;;1.20;;
38208;SDS011;24016;52.102;11.584;2023-03-25T16:03:20;2.38;;;1.05;;
38208;SDS011;24016;52.102;11.584;2023-03-25T16:05:58;2.55;;;1.02;;
38208;SDS011;24016;52.102;11.584;2023-03-25T16:08:30;1.98;;;0.85;;
38208;SDS011;24016;52.102;11.584;2023-03-25T16:13:45;3.55;;;0.85;;
38208;SDS011;24016;52.102;11.584;2023-03-25T16:16:12;1.83;;;1.10;;
38208;SDS011;24016;52.102;11.584;2023-03-25T16:18:40;1.05;;;0.80;;
38208;SDS011;24016;52.102;11.584;2023-03-25T16:21:08;2.28;;;0.90;;
38208;SDS011;24016;52.102;11.584;2023-03-25T16:23:35;2.22;;;0.90;;
38208;SDS011;24016;52.102;11.584;2023-03-25T16:26:03;3.80;;;1.13;;
38208;SDS011;24016;52.102;11.584;2023-03-25T16:28:39;4.53;;;1.00;;
38208;SDS011;24016;52.102;11.584;2023-03-25T16:31:13;3.55;;;1.60;;
38208;SDS011;24016;52.102;11.584;2023-03-25T16:34:00;4.90;;;0.77;;
38208;SDS011;24016;52.102;11.584;2023-03-25T16:36:25;3.28;;;0.85;;
38208;SDS011;24016;52.102;11.584;2023-03-25T16:38:52;3.10;;;1.10;;
38208;SDS011;24016;52.102;11.584;2023-03-25T16:41:20;3.55;;;1.40;;
38208;SDS011;24016;52.102;11.584;2023-03-25T16:43:45;5.78;;;1.52;;
38208;SDS011;24016;52.102;11.584;2023-03-25T16:46:19;4.47;;;1.30;;
38208;SDS011;24016;52.102;11.584;2023-03-25T16:48:53;3.30;;;1.38;;
38208;SDS011;24016;52.102;11.584;2023-03-25T16:51:21;2.55;;;1.13;;
38208;SDS011;24016;52.102;11.584;2023-03-25T16:53:53;4.95;;;1.20;;
38208;SDS011;24016;52.102;11.584;2023-03-25T16:56:26;2.58;;;1.20;;
38208;SDS011;24016;52.102;11.584;2023-03-25T16:59:01;3.58;;;1.60;;